Francisco Carle Airport


Codes: SPJJ/JAU
Name: Francisco Carle Airport
City: Jauja
Country: Peru
Elevation: 11034 ft.
Wikipedia:

Photos at Francisco Carle Airport


   Photos courtesy of SpottingLog. You can add your own sightings and photos by signing up for a free trial today.



No photos found.

Weather at Francisco Carle Airport


Time (UTC)DescriptionTempratureWindCloud coverageVisibilityPressureHumidity
25-Jun-2024 15:00Clear Sky8°C2 mph, S4%10000m1024hPa72%
25-Jun-2024 18:00Clear Sky13°C2 mph, SW6%10000m1019hPa48%
25-Jun-2024 21:00Few Clouds17°C4 mph, NE11%10000m1013hPa33%
26-Jun-2024 00:00Few Clouds9°C7 mph, NE12%10000m1021hPa78%
26-Jun-2024 03:00Broken Clouds7°C4 mph, N84%10000m1024hPa86%
26-Jun-2024 06:00Broken Clouds7°C4 mph, N74%10000m1024hPa85%
26-Jun-2024 09:00Overcast Clouds6°C2 mph, NW100%10000m1023hPa88%
26-Jun-2024 12:00Broken Clouds7°C4 mph, NW75%10000m1024hPa84%
26-Jun-2024 15:00Scattered Clouds13°C0 mph, SW25%10000m1021hPa52%
26-Jun-2024 18:00Scattered Clouds17°C0 mph, SE38%10000m1015hPa35%
26-Jun-2024 21:00Broken Clouds16°C9 mph, NE84%10000m1013hPa47%
27-Jun-2024 00:00Broken Clouds11°C7 mph, NE82%10000m1019hPa74%
27-Jun-2024 03:00Scattered Clouds8°C4 mph, N36%10000m1023hPa85%
27-Jun-2024 06:00Broken Clouds9°C4 mph, N63%10000m1022hPa78%
27-Jun-2024 09:00Overcast Clouds8°C2 mph, NE97%10000m1021hPa77%
27-Jun-2024 12:00Broken Clouds7°C0 mph, E73%10000m1023hPa83%
27-Jun-2024 15:00Few Clouds13°C0 mph, E11%10000m1021hPa52%
27-Jun-2024 18:00Clear Sky17°C2 mph, NW9%10000m1014hPa32%
27-Jun-2024 21:00Few Clouds17°C7 mph, NE16%10000m1011hPa33%
28-Jun-2024 00:00Few Clouds10°C4 mph, NE19%10000m1018hPa75%
28-Jun-2024 03:00Few Clouds8°C4 mph, N19%10000m1021hPa85%
28-Jun-2024 06:00Scattered Clouds6°C2 mph, NW25%10000m1020hPa87%
28-Jun-2024 09:00Scattered Clouds5°C0 mph, NE26%10000m1020hPa91%
28-Jun-2024 12:00Few Clouds6°C2 mph, E19%10000m1023hPa92%
28-Jun-2024 15:00Scattered Clouds13°C2 mph, SE36%10000m1019hPa58%
28-Jun-2024 18:00Broken Clouds17°C2 mph, S61%10000m1013hPa31%
28-Jun-2024 21:00Scattered Clouds18°C7 mph, NE45%10000m1010hPa33%
29-Jun-2024 00:00Scattered Clouds10°C7 mph, N38%10000m1018hPa82%
29-Jun-2024 03:00Broken Clouds8°C4 mph, N60%10000m1021hPa90%
29-Jun-2024 06:00Broken Clouds7°C0 mph, S67%10000m1020hPa88%
29-Jun-2024 09:00Broken Clouds8°C0 mph, SW73%10000m1020hPa85%
29-Jun-2024 12:00Overcast Clouds9°C2 mph, SE85%10000m1021hPa74%
29-Jun-2024 15:00Overcast Clouds12°C0 mph, NE89%10000m1022hPa57%
29-Jun-2024 18:00Overcast Clouds16°C2 mph, N93%10000m1017hPa43%
29-Jun-2024 21:00Broken Clouds16°C7 mph, NE56%10000m1013hPa41%
30-Jun-2024 00:00Broken Clouds9°C7 mph, N51%10000m1020hPa83%
30-Jun-2024 03:00Scattered Clouds8°C4 mph, N42%10000m1023hPa91%
30-Jun-2024 06:00Scattered Clouds6°C2 mph, N39%10000m1023hPa91%
30-Jun-2024 09:00Overcast Clouds8°C2 mph, N85%10000m1022hPa84%
30-Jun-2024 12:00Overcast Clouds10°C2 mph, W92%10000m1022hPa62%